sensor_id;sensor_type;location;lat;lon;timestamp;P1;durP1;ratioP1;P2;durP2;ratioP2
55758;SDS011;41678;52.126;20.664;2023-08-01T00:02:14;6.18;;;2.63;;
55758;SDS011;41678;52.126;20.664;2023-08-01T00:07:34;7.47;;;2.60;;
55758;SDS011;41678;52.126;20.664;2023-08-01T00:12:53;8.50;;;3.03;;
55758;SDS011;41678;52.126;20.664;2023-08-01T00:18:12;8.30;;;3.08;;
55758;SDS011;41678;52.126;20.664;2023-08-01T00:23:32;7.53;;;2.90;;
55758;SDS011;41678;52.126;20.664;2023-08-01T00:28:51;7.45;;;2.70;;
55758;SDS011;41678;52.126;20.664;2023-08-01T00:34:10;5.78;;;2.60;;
55758;SDS011;41678;52.126;20.664;2023-08-01T00:39:30;8.63;;;2.70;;
55758;SDS011;41678;52.126;20.664;2023-08-01T00:50:47;8.95;;;2.90;;
55758;SDS011;41678;52.126;20.664;2023-08-01T00:56:07;8.32;;;3.13;;
55758;SDS011;41678;52.126;20.664;2023-08-01T01:01:27;7.00;;;2.77;;
55758;SDS011;41678;52.126;20.664;2023-08-01T01:06:48;12.93;;;2.78;;
55758;SDS011;41678;52.126;20.664;2023-08-01T01:12:12;10.20;;;2.50;;
55758;SDS011;41678;52.126;20.664;2023-08-01T01:17:31;6.05;;;2.70;;
55758;SDS011;41678;52.126;20.664;2023-08-01T01:22:53;9.00;;;2.60;;
55758;SDS011;41678;52.126;20.664;2023-08-01T01:28:15;6.97;;;2.70;;
55758;SDS011;41678;52.126;20.664;2023-08-01T01:33:35;9.93;;;3.20;;
55758;SDS011;41678;52.126;20.664;2023-08-01T01:38:56;8.53;;;2.30;;
55758;SDS011;41678;52.126;20.664;2023-08-01T01:44:15;9.57;;;2.80;;
55758;SDS011;41678;52.126;20.664;2023-08-01T01:49:35;6.22;;;2.50;;
55758;SDS011;41678;52.126;20.664;2023-08-01T01:54:54;7.53;;;2.60;;
55758;SDS011;41678;52.126;20.664;2023-08-01T02:00:15;11.80;;;3.25;;
55758;SDS011;41678;52.126;20.664;2023-08-01T02:05:35;8.80;;;3.23;;
55758;SDS011;41678;52.126;20.664;2023-08-01T02:10:59;8.70;;;2.75;;
55758;SDS011;41678;52.126;20.664;2023-08-01T02:16:18;8.43;;;2.70;;
55758;SDS011;41678;52.126;20.664;2023-08-01T02:21:38;5.82;;;2.42;;
55758;SDS011;41678;52.126;20.664;2023-08-01T02:26:57;9.07;;;2.88;;
55758;SDS011;41678;52.126;20.664;2023-08-01T02:32:17;7.55;;;2.45;;
55758;SDS011;41678;52.126;20.664;2023-08-01T02:37:36;6.68;;;2.88;;
55758;SDS011;41678;52.126;20.664;2023-08-01T02:42:56;9.93;;;2.92;;
55758;SDS011;41678;52.126;20.664;2023-08-01T02:48:15;7.10;;;2.30;;
55758;SDS011;41678;52.126;20.664;2023-08-01T02:53:35;6.13;;;2.40;;
55758;SDS011;41678;52.126;20.664;2023-08-01T02:58:56;7.10;;;2.70;;
55758;SDS011;41678;52.126;20.664;2023-08-01T03:04:16;9.27;;;2.90;;
55758;SDS011;41678;52.126;20.664;2023-08-01T03:09:36;6.88;;;2.30;;
55758;SDS011;41678;52.126;20.664;2023-08-01T03:14:55;8.85;;;2.70;;
55758;SDS011;41678;52.126;20.664;2023-08-01T03:20:14;7.85;;;2.63;;
55758;SDS011;41678;52.126;20.664;2023-08-01T03:25:34;11.00;;;2.47;;
55758;SDS011;41678;52.126;20.664;2023-08-01T03:30:53;6.80;;;2.35;;
55758;SDS011;41678;52.126;20.664;2023-08-01T03:36:13;6.80;;;2.50;;
55758;SDS011;41678;52.126;20.664;2023-08-01T03:41:33;12.27;;;2.67;;
55758;SDS011;41678;52.126;20.664;2023-08-01T03:46:53;8.73;;;2.30;;
55758;SDS011;41678;52.126;20.664;2023-08-01T03:52:14;9.52;;;2.70;;
55758;SDS011;41678;52.126;20.664;2023-08-01T03:57:34;6.70;;;2.30;;
55758;SDS011;41678;52.126;20.664;2023-08-01T04:02:55;6.93;;;2.40;;
55758;SDS011;41678;52.126;20.664;2023-08-01T04:08:15;12.60;;;2.13;;
55758;SDS011;41678;52.126;20.664;2023-08-01T04:13:34;6.60;;;2.13;;
55758;SDS011;41678;52.126;20.664;2023-08-01T04:18:54;21.13;;;2.70;;
55758;SDS011;41678;52.126;20.664;2023-08-01T04:24:13;8.35;;;2.17;;
55758;SDS011;41678;52.126;20.664;2023-08-01T04:29:32;5.28;;;2.05;;
55758;SDS011;41678;52.126;20.664;2023-08-01T04:34:52;6.80;;;2.13;;
55758;SDS011;41678;52.126;20.664;2023-08-01T04:40:12;8.45;;;1.85;;
55758;SDS011;41678;52.126;20.664;2023-08-01T04:45:32;5.93;;;1.80;;
55758;SDS011;41678;52.126;20.664;2023-08-01T04:50:52;6.15;;;2.03;;
55758;SDS011;41678;52.126;20.664;2023-08-01T04:56:12;5.65;;;1.85;;
55758;SDS011;41678;52.126;20.664;2023-08-01T05:01:31;7.95;;;1.77;;
55758;SDS011;41678;52.126;20.664;2023-08-01T05:06:51;6.82;;;1.95;;
55758;SDS011;41678;52.126;20.664;2023-08-01T05:12:10;7.93;;;2.50;;
55758;SDS011;41678;52.126;20.664;2023-08-01T05:17:30;6.93;;;1.95;;
55758;SDS011;41678;52.126;20.664;2023-08-01T05:22:49;12.55;;;2.13;;
55758;SDS011;41678;52.126;20.664;2023-08-01T05:28:09;9.57;;;2.17;;
55758;SDS011;41678;52.126;20.664;2023-08-01T05:33:28;6.35;;;1.80;;
55758;SDS011;41678;52.126;20.664;2023-08-01T05:38:48;6.32;;;1.83;;
55758;SDS011;41678;52.126;20.664;2023-08-01T05:44:07;9.00;;;2.50;;
55758;SDS011;41678;52.126;20.664;2023-08-01T05:49:26;7.95;;;2.15;;
55758;SDS011;41678;52.126;20.664;2023-08-01T05:54:48;8.88;;;2.03;;
55758;SDS011;41678;52.126;20.664;2023-08-01T06:00:08;5.38;;;2.00;;
55758;SDS011;41678;52.126;20.664;2023-08-01T06:05:35;12.52;;;1.98;;
55758;SDS011;41678;52.126;20.664;2023-08-01T06:10:55;5.70;;;2.00;;
55758;SDS011;41678;52.126;20.664;2023-08-01T06:16:14;6.57;;;1.90;;
55758;SDS011;41678;52.126;20.664;2023-08-01T06:21:34;7.05;;;2.20;;
55758;SDS011;41678;52.126;20.664;2023-08-01T06:26:54;9.15;;;1.95;;
55758;SDS011;41678;52.126;20.664;2023-08-01T06:32:13;5.57;;;1.70;;
55758;SDS011;41678;52.126;20.664;2023-08-01T06:37:33;9.32;;;2.17;;
55758;SDS011;41678;52.126;20.664;2023-08-01T06:42:52;5.13;;;1.88;;
55758;SDS011;41678;52.126;20.664;2023-08-01T06:48:11;6.90;;;2.08;;
55758;SDS011;41678;52.126;20.664;2023-08-01T06:53:31;9.05;;;2.10;;
55758;SDS011;41678;52.126;20.664;2023-08-01T06:58:51;5.32;;;1.73;;
55758;SDS011;41678;52.126;20.664;2023-08-01T07:04:10;9.40;;;1.88;;
55758;SDS011;41678;52.126;20.664;2023-08-01T07:09:30;8.52;;;1.90;;
55758;SDS011;41678;52.126;20.664;2023-08-01T07:14:49;6.15;;;2.00;;
55758;SDS011;41678;52.126;20.664;2023-08-01T07:20:09;6.43;;;2.20;;
55758;SDS011;41678;52.126;20.664;2023-08-01T07:25:29;6.60;;;2.53;;
55758;SDS011;41678;52.126;20.664;2023-08-01T07:30:57;8.05;;;2.25;;
55758;SDS011;41678;52.126;20.664;2023-08-01T07:36:17;6.43;;;1.92;;
55758;SDS011;41678;52.126;20.664;2023-08-01T07:41:37;7.53;;;2.00;;
55758;SDS011;41678;52.126;20.664;2023-08-01T07:46:57;7.30;;;2.30;;
55758;SDS011;41678;52.126;20.664;2023-08-01T07:52:16;7.22;;;2.17;;
55758;SDS011;41678;52.126;20.664;2023-08-01T07:57:36;6.70;;;2.42;;
55758;SDS011;41678;52.126;20.664;2023-08-01T08:02:56;11.23;;;2.10;;
55758;SDS011;41678;52.126;20.664;2023-08-01T08:08:17;7.70;;;2.42;;
55758;SDS011;41678;52.126;20.664;2023-08-01T08:13:36;10.30;;;2.60;;
55758;SDS011;41678;52.126;20.664;2023-08-01T08:18:56;5.20;;;2.08;;
55758;SDS011;41678;52.126;20.664;2023-08-01T08:24:15;8.10;;;2.67;;
55758;SDS011;41678;52.126;20.664;2023-08-01T08:29:38;6.88;;;2.40;;
55758;SDS011;41678;52.126;20.664;2023-08-01T08:34:58;13.52;;;2.25;;
55758;SDS011;41678;52.126;20.664;2023-08-01T08:40:19;11.63;;;2.70;;
55758;SDS011;41678;52.126;20.664;2023-08-01T08:45:39;6.00;;;2.40;;
55758;SDS011;41678;52.126;20.664;2023-08-01T08:51:02;9.25;;;2.70;;
55758;SDS011;41678;52.126;20.664;2023-08-01T08:56:24;5.70;;;2.47;;
55758;SDS011;41678;52.126;20.664;2023-08-01T09:01:44;6.18;;;2.65;;
55758;SDS011;41678;52.126;20.664;2023-08-01T09:07:07;6.47;;;2.60;;
55758;SDS011;41678;52.126;20.664;2023-08-01T09:12:33;5.70;;;2.25;;
55758;SDS011;41678;52.126;20.664;2023-08-01T09:17:54;6.18;;;2.47;;
55758;SDS011;41678;52.126;20.664;2023-08-01T09:23:19;9.15;;;2.10;;
55758;SDS011;41678;52.126;20.664;2023-08-01T09:28:38;10.15;;;2.83;;
55758;SDS011;41678;52.126;20.664;2023-08-01T09:33:58;5.43;;;2.35;;
55758;SDS011;41678;52.126;20.664;2023-08-01T09:39:19;9.50;;;2.70;;
55758;SDS011;41678;52.126;20.664;2023-08-01T09:44:44;13.50;;;2.78;;
55758;SDS011;41678;52.126;20.664;2023-08-01T09:50:05;5.72;;;2.22;;
55758;SDS011;41678;52.126;20.664;2023-08-01T09:55:26;9.75;;;2.38;;
55758;SDS011;41678;52.126;20.664;2023-08-01T10:00:51;7.47;;;2.17;;
55758;SDS011;41678;52.126;20.664;2023-08-01T10:06:12;6.03;;;2.45;;
55758;SDS011;41678;52.126;20.664;2023-08-01T10:11:36;6.00;;;2.35;;
55758;SDS011;41678;52.126;20.664;2023-08-01T10:16:58;7.60;;;2.42;;
55758;SDS011;41678;52.126;20.664;2023-08-01T10:22:19;9.43;;;3.15;;
55758;SDS011;41678;52.126;20.664;2023-08-01T10:27:42;8.18;;;2.63;;
55758;SDS011;41678;52.126;20.664;2023-08-01T10:33:02;8.52;;;2.50;;
55758;SDS011;41678;52.126;20.664;2023-08-01T10:38:22;12.75;;;2.53;;
55758;SDS011;41678;52.126;20.664;2023-08-01T10:43:41;7.07;;;1.95;;
55758;SDS011;41678;52.126;20.664;2023-08-01T10:49:01;6.72;;;2.63;;
55758;SDS011;41678;52.126;20.664;2023-08-01T10:54:21;5.53;;;2.20;;
55758;SDS011;41678;52.126;20.664;2023-08-01T10:59:44;7.80;;;2.72;;
55758;SDS011;41678;52.126;20.664;2023-08-01T11:05:05;9.38;;;2.80;;
55758;SDS011;41678;52.126;20.664;2023-08-01T11:10:27;10.85;;;2.97;;
55758;SDS011;41678;52.126;20.664;2023-08-01T11:15:48;7.03;;;2.80;;
55758;SDS011;41678;52.126;20.664;2023-08-01T11:21:07;8.77;;;2.90;;
55758;SDS011;41678;52.126;20.664;2023-08-01T11:26:27;11.90;;;3.03;;
55758;SDS011;41678;52.126;20.664;2023-08-01T11:31:54;11.68;;;3.67;;
55758;SDS011;41678;52.126;20.664;2023-08-01T11:37:19;15.77;;;3.30;;
55758;SDS011;41678;52.126;20.664;2023-08-01T11:42:39;7.78;;;2.55;;
55758;SDS011;41678;52.126;20.664;2023-08-01T11:47:58;9.55;;;2.90;;
55758;SDS011;41678;52.126;20.664;2023-08-01T11:53:19;9.15;;;2.80;;
55758;SDS011;41678;52.126;20.664;2023-08-01T11:58:42;8.73;;;2.80;;
55758;SDS011;41678;52.126;20.664;2023-08-01T12:04:02;7.18;;;2.63;;
55758;SDS011;41678;52.126;20.664;2023-08-01T12:09:22;7.00;;;2.50;;
55758;SDS011;41678;52.126;20.664;2023-08-01T12:14:42;7.10;;;2.67;;
55758;SDS011;41678;52.126;20.664;2023-08-01T12:20:02;7.70;;;3.03;;
55758;SDS011;41678;52.126;20.664;2023-08-01T12:25:22;6.60;;;2.40;;
55758;SDS011;41678;52.126;20.664;2023-08-01T12:30:42;7.07;;;2.50;;
55758;SDS011;41678;52.126;20.664;2023-08-01T12:41:22;6.95;;;2.85;;
55758;SDS011;41678;52.126;20.664;2023-08-01T12:46:42;7.35;;;2.92;;
55758;SDS011;41678;52.126;20.664;2023-08-01T12:52:02;12.80;;;2.70;;
55758;SDS011;41678;52.126;20.664;2023-08-01T12:57:22;7.32;;;3.15;;
55758;SDS011;41678;52.126;20.664;2023-08-01T13:02:42;10.93;;;2.40;;
55758;SDS011;41678;52.126;20.664;2023-08-01T13:08:03;9.40;;;2.47;;
55758;SDS011;41678;52.126;20.664;2023-08-01T13:13:22;6.40;;;2.88;;
55758;SDS011;41678;52.126;20.664;2023-08-01T13:18:43;11.15;;;2.80;;
55758;SDS011;41678;52.126;20.664;2023-08-01T13:24:04;5.57;;;2.30;;
55758;SDS011;41678;52.126;20.664;2023-08-01T13:29:24;7.95;;;2.72;;
55758;SDS011;41678;52.126;20.664;2023-08-01T13:34:44;6.10;;;3.25;;
55758;SDS011;41678;52.126;20.664;2023-08-01T13:40:04;12.82;;;3.00;;
55758;SDS011;41678;52.126;20.664;2023-08-01T13:45:24;6.78;;;2.55;;
55758;SDS011;41678;52.126;20.664;2023-08-01T13:50:44;7.78;;;3.10;;
55758;SDS011;41678;52.126;20.664;2023-08-01T13:56:03;9.55;;;3.20;;
55758;SDS011;41678;52.126;20.664;2023-08-01T14:01:23;6.57;;;3.00;;
55758;SDS011;41678;52.126;20.664;2023-08-01T14:06:43;9.98;;;3.20;;
55758;SDS011;41678;52.126;20.664;2023-08-01T14:12:03;12.93;;;3.07;;
55758;SDS011;41678;52.126;20.664;2023-08-01T14:17:24;18.08;;;3.78;;
55758;SDS011;41678;52.126;20.664;2023-08-01T14:22:45;5.97;;;2.28;;
55758;SDS011;41678;52.126;20.664;2023-08-01T14:28:08;7.63;;;2.58;;
55758;SDS011;41678;52.126;20.664;2023-08-01T14:33:28;10.00;;;3.15;;
55758;SDS011;41678;52.126;20.664;2023-08-01T14:38:49;7.82;;;2.83;;
55758;SDS011;41678;52.126;20.664;2023-08-01T14:44:14;9.10;;;2.95;;
55758;SDS011;41678;52.126;20.664;2023-08-01T14:49:33;6.47;;;3.05;;
55758;SDS011;41678;52.126;20.664;2023-08-01T14:54:53;8.48;;;3.20;;
55758;SDS011;41678;52.126;20.664;2023-08-01T15:00:13;8.63;;;2.90;;
55758;SDS011;41678;52.126;20.664;2023-08-01T15:05:33;7.60;;;2.83;;
55758;SDS011;41678;52.126;20.664;2023-08-01T15:10:52;7.88;;;3.15;;
55758;SDS011;41678;52.126;20.664;2023-08-01T15:16:12;7.53;;;3.13;;
55758;SDS011;41678;52.126;20.664;2023-08-01T15:21:32;6.75;;;3.50;;
55758;SDS011;41678;52.126;20.664;2023-08-01T15:26:52;8.57;;;2.72;;
55758;SDS011;41678;52.126;20.664;2023-08-01T15:32:12;10.95;;;3.08;;
55758;SDS011;41678;52.126;20.664;2023-08-01T15:37:31;9.90;;;3.33;;
55758;SDS011;41678;52.126;20.664;2023-08-01T15:42:51;7.85;;;3.00;;
55758;SDS011;41678;52.126;20.664;2023-08-01T15:48:10;7.63;;;3.35;;
55758;SDS011;41678;52.126;20.664;2023-08-01T15:53:30;6.93;;;3.33;;
55758;SDS011;41678;52.126;20.664;2023-08-01T15:58:54;8.15;;;2.90;;
55758;SDS011;41678;52.126;20.664;2023-08-01T16:04:17;8.05;;;2.60;;
55758;SDS011;41678;52.126;20.664;2023-08-01T16:09:37;5.82;;;2.55;;
55758;SDS011;41678;52.126;20.664;2023-08-01T16:14:58;6.65;;;2.83;;
55758;SDS011;41678;52.126;20.664;2023-08-01T16:20:17;7.03;;;2.83;;
55758;SDS011;41678;52.126;20.664;2023-08-01T16:25:38;8.48;;;2.47;;
55758;SDS011;41678;52.126;20.664;2023-08-01T16:30:58;6.27;;;2.53;;
55758;SDS011;41678;52.126;20.664;2023-08-01T16:36:18;6.88;;;2.60;;
55758;SDS011;41678;52.126;20.664;2023-08-01T16:41:37;6.45;;;2.60;;
55758;SDS011;41678;52.126;20.664;2023-08-01T16:47:05;6.90;;;3.00;;
55758;SDS011;41678;52.126;20.664;2023-08-01T16:52:25;10.20;;;2.78;;
55758;SDS011;41678;52.126;20.664;2023-08-01T16:57:45;7.97;;;2.67;;
55758;SDS011;41678;52.126;20.664;2023-08-01T17:03:05;13.13;;;2.88;;
55758;SDS011;41678;52.126;20.664;2023-08-01T17:08:25;8.77;;;2.65;;
55758;SDS011;41678;52.126;20.664;2023-08-01T17:13:44;7.65;;;2.80;;
55758;SDS011;41678;52.126;20.664;2023-08-01T17:19:04;6.97;;;2.78;;
55758;SDS011;41678;52.126;20.664;2023-08-01T17:24:23;5.88;;;2.42;;
55758;SDS011;41678;52.126;20.664;2023-08-01T17:29:43;9.13;;;2.65;;
55758;SDS011;41678;52.126;20.664;2023-08-01T17:35:02;8.07;;;2.58;;
55758;SDS011;41678;52.126;20.664;2023-08-01T17:40:22;6.00;;;2.33;;
55758;SDS011;41678;52.126;20.664;2023-08-01T17:45:42;9.05;;;2.95;;
55758;SDS011;41678;52.126;20.664;2023-08-01T17:51:02;7.28;;;3.00;;
55758;SDS011;41678;52.126;20.664;2023-08-01T17:56:25;6.75;;;2.42;;
55758;SDS011;41678;52.126;20.664;2023-08-01T18:01:45;6.35;;;2.85;;
55758;SDS011;41678;52.126;20.664;2023-08-01T18:07:05;9.20;;;3.30;;
55758;SDS011;41678;52.126;20.664;2023-08-01T18:12:25;6.13;;;2.92;;
55758;SDS011;41678;52.126;20.664;2023-08-01T18:17:44;6.78;;;3.05;;
55758;SDS011;41678;52.126;20.664;2023-08-01T18:23:07;8.13;;;2.55;;
55758;SDS011;41678;52.126;20.664;2023-08-01T18:28:27;5.88;;;2.50;;
55758;SDS011;41678;52.126;20.664;2023-08-01T18:33:47;6.65;;;2.80;;
55758;SDS011;41678;52.126;20.664;2023-08-01T18:39:06;6.32;;;2.70;;
55758;SDS011;41678;52.126;20.664;2023-08-01T18:44:26;13.35;;;2.88;;
55758;SDS011;41678;52.126;20.664;2023-08-01T18:49:46;6.65;;;2.85;;
55758;SDS011;41678;52.126;20.664;2023-08-01T18:55:09;6.00;;;2.70;;
55758;SDS011;41678;52.126;20.664;2023-08-01T19:00:31;9.88;;;3.40;;
55758;SDS011;41678;52.126;20.664;2023-08-01T19:05:59;6.15;;;2.20;;
55758;SDS011;41678;52.126;20.664;2023-08-01T19:11:20;5.95;;;2.72;;
55758;SDS011;41678;52.126;20.664;2023-08-01T19:16:41;7.65;;;3.03;;
55758;SDS011;41678;52.126;20.664;2023-08-01T19:22:01;5.88;;;2.60;;
55758;SDS011;41678;52.126;20.664;2023-08-01T19:27:25;9.93;;;2.90;;
55758;SDS011;41678;52.126;20.664;2023-08-01T19:32:46;6.18;;;2.60;;
55758;SDS011;41678;52.126;20.664;2023-08-01T19:38:07;12.00;;;2.85;;
55758;SDS011;41678;52.126;20.664;2023-08-01T19:43:32;9.50;;;2.90;;
55758;SDS011;41678;52.126;20.664;2023-08-01T19:48:52;7.00;;;2.78;;
55758;SDS011;41678;52.126;20.664;2023-08-01T19:54:15;5.78;;;2.20;;
55758;SDS011;41678;52.126;20.664;2023-08-01T19:59:35;6.07;;;2.10;;
55758;SDS011;41678;52.126;20.664;2023-08-01T20:04:54;6.10;;;2.17;;
55758;SDS011;41678;52.126;20.664;2023-08-01T20:10:16;4.75;;;1.77;;
55758;SDS011;41678;52.126;20.664;2023-08-01T20:15:36;5.93;;;2.65;;
55758;SDS011;41678;52.126;20.664;2023-08-01T20:20:55;5.00;;;1.80;;
55758;SDS011;41678;52.126;20.664;2023-08-01T20:26:17;6.28;;;1.88;;
55758;SDS011;41678;52.126;20.664;2023-08-01T20:31:36;6.05;;;2.20;;
55758;SDS011;41678;52.126;20.664;2023-08-01T20:36:56;5.75;;;2.08;;
55758;SDS011;41678;52.126;20.664;2023-08-01T20:42:16;6.78;;;2.70;;
55758;SDS011;41678;52.126;20.664;2023-08-01T20:47:36;7.47;;;2.40;;
55758;SDS011;41678;52.126;20.664;2023-08-01T20:52:56;6.15;;;2.85;;
55758;SDS011;41678;52.126;20.664;2023-08-01T20:58:17;8.50;;;2.70;;
55758;SDS011;41678;52.126;20.664;2023-08-01T21:03:39;7.18;;;2.85;;
55758;SDS011;41678;52.126;20.664;2023-08-01T21:08:59;6.57;;;3.00;;
55758;SDS011;41678;52.126;20.664;2023-08-01T21:14:18;6.45;;;2.58;;
55758;SDS011;41678;52.126;20.664;2023-08-01T21:19:38;6.40;;;2.95;;
55758;SDS011;41678;52.126;20.664;2023-08-01T21:24:57;8.48;;;3.15;;
55758;SDS011;41678;52.126;20.664;2023-08-01T21:30:18;8.35;;;3.00;;
55758;SDS011;41678;52.126;20.664;2023-08-01T21:35:38;10.77;;;2.75;;
55758;SDS011;41678;52.126;20.664;2023-08-01T21:40:57;7.78;;;3.13;;
55758;SDS011;41678;52.126;20.664;2023-08-01T21:46:17;8.40;;;3.75;;
55758;SDS011;41678;52.126;20.664;2023-08-01T21:51:37;14.93;;;3.10;;
55758;SDS011;41678;52.126;20.664;2023-08-01T21:56:56;9.98;;;2.78;;
55758;SDS011;41678;52.126;20.664;2023-08-01T22:02:15;8.10;;;3.50;;
55758;SDS011;41678;52.126;20.664;2023-08-01T22:07:35;8.60;;;2.95;;
55758;SDS011;41678;52.126;20.664;2023-08-01T22:12:55;7.65;;;3.42;;
55758;SDS011;41678;52.126;20.664;2023-08-01T22:18:16;9.55;;;3.80;;
55758;SDS011;41678;52.126;20.664;2023-08-01T22:23:54;7.70;;;3.40;;
55758;SDS011;41678;52.126;20.664;2023-08-01T22:29:13;10.18;;;3.42;;
55758;SDS011;41678;52.126;20.664;2023-08-01T22:34:33;8.95;;;3.80;;
55758;SDS011;41678;52.126;20.664;2023-08-01T22:39:52;8.43;;;3.67;;
55758;SDS011;41678;52.126;20.664;2023-08-01T22:45:11;7.70;;;3.53;;
55758;SDS011;41678;52.126;20.664;2023-08-01T22:50:31;8.35;;;3.67;;
55758;SDS011;41678;52.126;20.664;2023-08-01T22:55:51;6.37;;;3.20;;
55758;SDS011;41678;52.126;20.664;2023-08-01T23:01:12;7.82;;;3.45;;
55758;SDS011;41678;52.126;20.664;2023-08-01T23:06:33;6.93;;;3.35;;
55758;SDS011;41678;52.126;20.664;2023-08-01T23:11:53;7.30;;;3.30;;
55758;SDS011;41678;52.126;20.664;2023-08-01T23:17:12;7.85;;;3.25;;
55758;SDS011;41678;52.126;20.664;2023-08-01T23:22:32;7.07;;;3.53;;
55758;SDS011;41678;52.126;20.664;2023-08-01T23:27:52;7.82;;;3.35;;
55758;SDS011;41678;52.126;20.664;2023-08-01T23:33:11;7.85;;;3.03;;
55758;SDS011;41678;52.126;20.664;2023-08-01T23:38:30;7.72;;;3.08;;
55758;SDS011;41678;52.126;20.664;2023-08-01T23:43:51;7.03;;;2.90;;
55758;SDS011;41678;52.126;20.664;2023-08-01T23:49:10;11.60;;;3.45;;
55758;SDS011;41678;52.126;20.664;2023-08-01T23:54:30;9.95;;;3.70;;
55758;SDS011;41678;52.126;20.664;2023-08-01T23:59:50;7.47;;;3.10;;
